createdAt,value
2023-02-25T00:00:01.114Z,5.88
2023-02-25T00:02:27.772Z,7.93
2023-02-25T00:04:54.733Z,8.32
2023-02-25T00:07:22.885Z,6.22
2023-02-25T00:09:49.537Z,6.60
2023-02-25T00:12:16.287Z,5.45
2023-02-25T00:14:42.924Z,6.05
2023-02-25T00:17:09.549Z,6.05
2023-02-25T00:19:36.271Z,12.27
2023-02-25T00:22:02.936Z,14.35
2023-02-25T00:24:29.602Z,13.82
2023-02-25T00:26:56.267Z,13.10
2023-02-25T00:29:23.112Z,10.13
2023-02-25T00:31:50.067Z,6.03
2023-02-25T00:34:18.050Z,6.43
2023-02-25T00:36:44.757Z,5.60
2023-02-25T00:39:11.652Z,5.60
2023-02-25T00:41:38.314Z,6.03
2023-02-25T00:44:05.093Z,5.03
2023-02-25T00:46:31.849Z,4.78
2023-02-25T00:48:59.118Z,5.07
2023-02-25T00:51:30.150Z,4.53
2023-02-25T00:53:57.052Z,4.63
2023-02-25T00:56:24.551Z,6.72
2023-02-25T00:58:51.573Z,6.20
2023-02-25T01:01:20.682Z,5.57
2023-02-25T01:03:48.127Z,5.40
2023-02-25T01:06:14.806Z,5.78
2023-02-25T01:08:41.747Z,4.65
2023-02-25T01:11:21.200Z,4.82
2023-02-25T01:13:48.826Z,7.30
2023-02-25T01:16:23.608Z,5.57
2023-02-25T01:18:54.500Z,5.55
2023-02-25T01:21:26.065Z,5.60
2023-02-25T01:23:59.096Z,8.45
2023-02-25T01:26:30.220Z,6.82
2023-02-25T01:28:57.081Z,5.15
2023-02-25T01:31:29.671Z,6.35
2023-02-25T01:34:00.117Z,5.35
2023-02-25T01:36:27.271Z,5.25
2023-02-25T01:38:53.917Z,5.25
2023-02-25T01:41:20.670Z,5.97
2023-02-25T01:44:06.273Z,6.57
2023-02-25T01:46:33.044Z,6.00
2023-02-25T01:49:00.132Z,6.97
2023-02-25T01:51:27.839Z,8.20
2023-02-25T01:53:55.821Z,8.02
2023-02-25T01:56:23.628Z,6.65
2023-02-25T01:58:50.423Z,5.53
2023-02-25T02:01:19.548Z,5.82
2023-02-25T02:03:46.363Z,5.82
2023-02-25T02:06:14.212Z,6.97
2023-02-25T02:08:41.619Z,6.63
2023-02-25T02:11:08.428Z,6.57
2023-02-25T02:13:36.774Z,6.93
2023-02-25T02:16:22.623Z,5.75
2023-02-25T02:18:52.439Z,6.95
2023-02-25T02:21:39.311Z,5.05
2023-02-25T02:24:05.926Z,5.72
2023-02-25T02:26:41.022Z,7.70
2023-02-25T02:29:22.862Z,5.20
2023-02-25T02:32:21.515Z,5.72
2023-02-25T02:35:09.522Z,4.85
2023-02-25T02:37:40.629Z,5.85
2023-02-25T02:40:15.513Z,5.38
2023-02-25T02:42:52.232Z,5.45
2023-02-25T02:45:26.081Z,5.35
2023-02-25T02:48:01.005Z,6.43
2023-02-25T02:50:36.684Z,6.28
2023-02-25T02:53:10.400Z,5.88
2023-02-25T02:55:41.200Z,6.45
2023-02-25T02:58:24.037Z,5.47
2023-02-25T03:00:55.657Z,5.13
2023-02-25T03:03:36.290Z,5.45
2023-02-25T03:06:09.345Z,5.95
2023-02-25T03:08:49.417Z,5.18
2023-02-25T03:11:16.108Z,5.68
2023-02-25T03:13:42.728Z,5.00
2023-02-25T03:16:12.794Z,4.90
2023-02-25T03:18:42.433Z,4.68
2023-02-25T03:21:13.488Z,4.93
2023-02-25T03:23:40.448Z,5.13
2023-02-25T03:26:42.798Z,5.28
2023-02-25T03:29:17.867Z,6.20
2023-02-25T03:31:58.551Z,5.00
2023-02-25T03:34:33.398Z,7.70
2023-02-25T03:37:23.926Z,8.25
2023-02-25T03:39:55.668Z,5.05
2023-02-25T03:42:25.757Z,7.60
2023-02-25T03:44:53.786Z,6.35
2023-02-25T03:47:20.959Z,4.85
2023-02-25T03:50:01.388Z,5.25
2023-02-25T03:52:28.103Z,5.97
2023-02-25T03:54:55.896Z,6.20
2023-02-25T03:57:26.294Z,6.15
2023-02-25T03:59:56.407Z,5.65
2023-02-25T04:02:31.141Z,5.53
2023-02-25T04:04:58.209Z,6.05
2023-02-25T04:07:25.042Z,10.00
2023-02-25T04:09:51.749Z,8.55
2023-02-25T04:12:18.357Z,7.57
2023-02-25T04:14:44.946Z,9.02
2023-02-25T04:17:11.837Z,6.88
2023-02-25T04:19:38.514Z,9.90
2023-02-25T04:22:07.937Z,8.18
2023-02-25T04:24:34.599Z,7.28
2023-02-25T04:27:01.822Z,6.95
2023-02-25T04:29:29.134Z,6.85
2023-02-25T04:31:56.046Z,6.00
2023-02-25T04:34:22.864Z,6.15
2023-02-25T04:36:49.705Z,5.22
2023-02-25T04:39:16.742Z,4.63
2023-02-25T04:41:43.421Z,5.30
2023-02-25T04:44:10.140Z,6.97
2023-02-25T04:46:39.449Z,5.90
2023-02-25T04:49:06.748Z,6.18
2023-02-25T04:51:33.595Z,8.35
2023-02-25T04:54:00.249Z,6.45
2023-02-25T04:56:26.922Z,7.97
2023-02-25T04:58:54.064Z,7.85
2023-02-25T05:01:20.789Z,7.15
2023-02-25T05:03:47.591Z,7.68
2023-02-25T05:06:14.244Z,7.68
2023-02-25T05:08:41.494Z,8.60
2023-02-25T05:11:08.222Z,8.98
2023-02-25T05:13:34.878Z,9.55
2023-02-25T05:16:06.146Z,8.90
2023-02-25T05:18:34.896Z,9.85
2023-02-25T05:21:01.655Z,10.88
2023-02-25T05:23:28.385Z,11.63
2023-02-25T05:25:56.756Z,13.02
2023-02-25T05:28:23.400Z,10.65
2023-02-25T05:30:52.230Z,8.73
2023-02-25T05:33:19.105Z,8.55
2023-02-25T05:35:45.742Z,9.60
2023-02-25T05:38:12.442Z,9.02
2023-02-25T05:40:39.797Z,9.05
2023-02-25T05:43:06.462Z,11.13
2023-02-25T05:45:33.169Z,9.57
2023-02-25T05:48:00.062Z,10.43
2023-02-25T05:50:26.673Z,10.88
2023-02-25T05:52:53.306Z,15.00
2023-02-25T05:55:20.018Z,19.48
2023-02-25T05:57:46.640Z,18.35
2023-02-25T06:00:15.190Z,15.50
2023-02-25T06:02:42.147Z,14.55
2023-02-25T06:05:09.134Z,11.15
2023-02-25T06:07:35.780Z,12.23
2023-02-25T06:10:02.434Z,8.02
2023-02-25T06:12:29.693Z,9.35
2023-02-25T06:14:56.468Z,7.10
2023-02-25T06:17:25.864Z,22.20
2023-02-25T06:19:53.011Z,24.08
2023-02-25T06:22:20.215Z,19.77
2023-02-25T06:24:46.982Z,15.95
2023-02-25T06:27:14.434Z,18.95
2023-02-25T06:29:41.790Z,33.20
2023-02-25T06:32:10.183Z,31.73
2023-02-25T06:34:36.998Z,29.27
2023-02-25T06:37:03.794Z,26.63
2023-02-25T06:39:30.465Z,24.45
2023-02-25T06:41:57.089Z,29.83
2023-02-25T06:44:23.956Z,27.55
2023-02-25T06:46:51.998Z,21.63
2023-02-25T06:49:19.148Z,34.22
2023-02-25T06:51:45.855Z,33.40
2023-02-25T06:54:12.513Z,31.77
2023-02-25T06:56:39.130Z,29.08
2023-02-25T06:59:05.795Z,19.92
2023-02-25T07:01:32.588Z,13.63
2023-02-25T07:03:59.238Z,16.38
2023-02-25T07:06:26.033Z,19.40
2023-02-25T07:08:52.782Z,11.73
2023-02-25T07:11:20.278Z,7.85
2023-02-25T07:13:47.193Z,26.13
2023-02-25T07:16:14.337Z,18.60
2023-02-25T07:18:41.812Z,13.80
2023-02-25T07:21:08.603Z,8.30
2023-02-25T07:23:35.241Z,9.93
2023-02-25T07:26:05.400Z,5.57
2023-02-25T07:28:32.141Z,5.47
2023-02-25T07:31:10.227Z,5.80
2023-02-25T07:33:37.004Z,4.80
2023-02-25T07:36:03.747Z,5.95
2023-02-25T07:38:30.446Z,6.85
2023-02-25T07:40:57.096Z,6.15
2023-02-25T07:43:23.781Z,5.18
2023-02-25T07:45:50.603Z,6.30
2023-02-25T07:48:17.389Z,6.97
2023-02-25T07:50:44.772Z,6.15
2023-02-25T07:53:11.445Z,7.57
2023-02-25T07:55:38.132Z,5.80
2023-02-25T07:58:07.150Z,5.05
2023-02-25T08:00:34.078Z,6.20
2023-02-25T08:03:00.859Z,7.85
2023-02-25T08:05:27.539Z,5.90
2023-02-25T08:07:54.159Z,6.68
2023-02-25T08:10:20.873Z,7.55
2023-02-25T08:12:47.471Z,7.95
2023-02-25T08:15:14.132Z,5.40
2023-02-25T08:17:40.779Z,5.80
2023-02-25T08:20:09.038Z,4.90
2023-02-25T08:22:35.749Z,4.68
2023-02-25T08:25:02.418Z,9.05
2023-02-25T08:27:29.091Z,6.40
2023-02-25T08:29:56.599Z,5.35
2023-02-25T08:32:25.364Z,6.25
2023-02-25T08:34:52.220Z,6.72
2023-02-25T08:37:19.416Z,5.05
2023-02-25T08:39:46.219Z,5.20
2023-02-25T08:42:14.715Z,6.45
2023-02-25T08:44:41.502Z,8.45
2023-02-25T08:47:08.174Z,6.50
2023-02-25T08:49:34.981Z,7.53
2023-02-25T08:52:01.688Z,4.57
2023-02-25T08:54:28.354Z,4.30
2023-02-25T08:56:55.697Z,5.03
2023-02-25T08:59:22.512Z,4.57
2023-02-25T09:01:50.412Z,5.45
2023-02-25T09:04:22.783Z,5.30
2023-02-25T09:06:50.852Z,4.72
2023-02-25T09:09:18.884Z,4.68
2023-02-25T09:11:46.167Z,5.72
2023-02-25T09:14:13.012Z,5.47
2023-02-25T09:16:39.778Z,5.53
2023-02-25T09:19:06.501Z,6.45
2023-02-25T09:21:33.204Z,6.32
2023-02-25T09:23:59.930Z,8.38
2023-02-25T09:26:26.544Z,7.43
2023-02-25T09:28:53.207Z,6.07
2023-02-25T09:31:20.063Z,6.03
2023-02-25T09:33:46.991Z,5.10
2023-02-25T09:36:18.118Z,4.10
2023-02-25T09:38:45.244Z,4.72
2023-02-25T09:41:41.469Z,5.50
2023-02-25T09:44:20.237Z,5.70
2023-02-25T09:47:15.087Z,3.50
2023-02-25T09:50:02.388Z,4.75
2023-02-25T09:52:35.893Z,4.20
2023-02-25T09:55:08.647Z,4.93
2023-02-25T09:57:41.520Z,3.72
2023-02-25T10:00:18.603Z,4.53
2023-02-25T10:03:00.815Z,4.20
2023-02-25T10:06:10.420Z,5.13
2023-02-25T10:08:44.301Z,5.20
2023-02-25T10:11:13.865Z,4.35
2023-02-25T10:13:54.390Z,4.65
2023-02-25T10:18:56.830Z,4.25
2023-02-25T10:21:43.757Z,3.42
2023-02-25T10:24:34.777Z,4.75
2023-02-25T10:27:21.225Z,3.58
2023-02-25T10:29:57.092Z,5.00
2023-02-25T10:32:28.532Z,5.30
2023-02-25T10:34:58.048Z,4.78
2023-02-25T10:37:35.202Z,3.75
2023-02-25T10:40:04.554Z,5.22
2023-02-25T10:42:31.586Z,3.03
2023-02-25T10:45:01.814Z,3.28
2023-02-25T10:47:35.001Z,4.45
2023-02-25T10:50:16.357Z,3.58
2023-02-25T10:52:54.547Z,4.05
2023-02-25T10:55:54.462Z,4.20
2023-02-25T10:58:35.502Z,5.65
2023-02-25T11:01:19.691Z,4.72
2023-02-25T11:03:59.802Z,4.85
2023-02-25T11:06:29.337Z,4.38
2023-02-25T11:08:58.607Z,4.20
2023-02-25T11:11:26.899Z,3.88
2023-02-25T11:14:13.267Z,4.20
2023-02-25T11:16:40.755Z,4.10
2023-02-25T11:19:20.217Z,4.00
2023-02-25T11:21:47.022Z,3.70
2023-02-25T11:24:17.428Z,3.28
2023-02-25T11:26:45.873Z,3.65
2023-02-25T11:29:21.272Z,3.13
2023-02-25T11:31:55.233Z,4.05
2023-02-25T11:34:27.220Z,2.85
2023-02-25T11:36:54.011Z,3.70
2023-02-25T11:39:25.766Z,3.47
2023-02-25T11:42:02.493Z,2.83
2023-02-25T11:44:41.427Z,3.65
2023-02-25T11:47:22.524Z,3.10
2023-02-25T11:50:05.153Z,2.88
2023-02-25T11:52:51.192Z,3.22
2023-02-25T11:55:42.354Z,2.25
2023-02-25T11:58:33.759Z,3.40
2023-02-25T12:01:05.105Z,2.80
2023-02-25T12:03:45.094Z,4.20
2023-02-25T12:06:31.255Z,4.07
2023-02-25T12:09:35.593Z,3.40
2023-02-25T12:12:19.605Z,3.58
2023-02-25T12:14:52.058Z,3.13
2023-02-25T12:17:30.898Z,3.40
2023-02-25T12:20:09.588Z,2.67
2023-02-25T12:22:54.129Z,3.72
2023-02-25T12:25:29.790Z,2.85
2023-02-25T12:28:34.421Z,4.35
2023-02-25T12:31:36.313Z,3.38
2023-02-25T12:34:08.699Z,4.35
2023-02-25T12:36:50.299Z,4.53
2023-02-25T12:39:48.138Z,3.75
2023-02-25T12:42:44.049Z,3.20
2023-02-25T12:46:01.061Z,4.15
2023-02-25T12:48:34.135Z,3.60
2023-02-25T12:51:12.986Z,5.85
2023-02-25T12:54:07.395Z,4.60
2023-02-25T12:57:39.123Z,4.25
2023-02-25T13:00:28.790Z,3.80
2023-02-25T13:03:21.419Z,5.45
2023-02-25T13:06:07.704Z,3.97
2023-02-25T13:09:16.079Z,3.10
2023-02-25T13:12:16.033Z,4.18
2023-02-25T13:14:48.244Z,4.00
2023-02-25T13:17:39.451Z,4.60
2023-02-25T13:20:05.990Z,5.10
2023-02-25T13:22:44.699Z,3.53
2023-02-25T13:25:19.851Z,2.85
2023-02-25T13:28:37.885Z,4.70
2023-02-25T13:31:26.179Z,4.32
2023-02-25T13:33:53.028Z,3.90
2023-02-25T13:36:43.913Z,5.22
2023-02-25T13:39:34.621Z,4.60
2023-02-25T13:42:22.671Z,5.85
2023-02-25T13:45:01.094Z,4.72
2023-02-25T13:47:46.500Z,3.97
2023-02-25T13:50:42.136Z,4.45
2023-02-25T13:53:24.145Z,4.88
2023-02-25T13:56:28.680Z,5.20
2023-02-25T13:59:20.600Z,5.55
2023-02-25T14:01:49.140Z,4.55
2023-02-25T14:04:43.215Z,6.05
2023-02-25T14:07:32.336Z,4.30
2023-02-25T14:10:23.447Z,5.53
2023-02-25T14:13:21.106Z,6.05
2023-02-25T14:15:58.211Z,5.55
2023-02-25T14:18:33.997Z,6.38
2023-02-25T14:21:21.664Z,6.15
2023-02-25T14:23:58.721Z,6.60
2023-02-25T14:26:53.666Z,7.88
2023-02-25T14:29:43.832Z,4.07
2023-02-25T14:32:28.804Z,6.75
2023-02-25T14:35:30.470Z,5.15
2023-02-25T14:38:10.043Z,5.57
2023-02-25T14:40:49.382Z,5.18
2023-02-25T14:43:21.939Z,7.78
2023-02-25T14:45:56.971Z,8.18
2023-02-25T14:48:44.540Z,4.35
2023-02-25T14:51:23.804Z,5.40
2023-02-25T14:54:29.912Z,5.75
2023-02-25T14:57:15.464Z,7.10
2023-02-25T15:00:10.289Z,5.68
2023-02-25T15:03:03.417Z,4.20
2023-02-25T15:11:23.140Z,7.57
2023-02-25T15:14:00.246Z,6.22
2023-02-25T15:16:45.692Z,7.47
2023-02-25T15:19:54.393Z,6.63
2023-02-25T15:22:23.867Z,7.03
2023-02-25T15:24:52.273Z,6.03
2023-02-25T15:27:37.962Z,4.90
2023-02-25T15:30:05.746Z,7.18
2023-02-25T15:32:52.433Z,6.15
2023-02-25T15:35:34.452Z,5.13
2023-02-25T15:38:00.993Z,6.55
2023-02-25T15:40:33.844Z,8.07
2023-02-25T15:43:01.710Z,7.70
2023-02-25T15:45:28.413Z,8.20
2023-02-25T15:48:07.458Z,6.45
2023-02-25T15:50:43.415Z,8.05
2023-02-25T15:53:31.424Z,6.10
2023-02-25T15:56:03.953Z,20.00
2023-02-25T15:58:30.501Z,7.05
2023-02-25T16:01:00.011Z,4.53
2023-02-25T16:03:35.884Z,9.35
2023-02-25T16:06:14.608Z,8.50
2023-02-25T16:08:56.888Z,11.40
2023-02-25T16:11:38.707Z,8.70
2023-02-25T16:14:27.703Z,8.02
2023-02-25T16:17:15.473Z,8.52
2023-02-25T16:19:42.209Z,7.10
2023-02-25T16:22:17.856Z,8.57
2023-02-25T16:24:48.255Z,8.35
2023-02-25T16:27:42.172Z,9.95
2023-02-25T16:30:30.273Z,6.45
2023-02-25T16:33:14.920Z,8.13
2023-02-25T16:36:12.796Z,7.97
2023-02-25T16:38:57.544Z,9.27
2023-02-25T16:41:33.318Z,7.25
2023-02-25T16:44:04.229Z,7.10
2023-02-25T16:46:32.503Z,7.70
2023-02-25T16:49:05.393Z,8.93
2023-02-25T16:51:39.784Z,6.07
2023-02-25T16:54:07.630Z,6.32
2023-02-25T16:56:34.370Z,7.43
2023-02-25T16:59:06.924Z,7.90
2023-02-25T17:01:34.749Z,6.15
2023-02-25T17:04:06.536Z,8.02
2023-02-25T17:06:33.238Z,13.35
2023-02-25T17:09:00.376Z,12.00
2023-02-25T17:11:27.059Z,4.97
2023-02-25T17:13:56.038Z,4.95
2023-02-25T17:16:32.328Z,7.45
2023-02-25T17:19:04.058Z,6.75
2023-02-25T17:21:44.164Z,6.38
2023-02-25T17:24:18.922Z,6.65
2023-02-25T17:29:13.834Z,6.65
2023-02-25T17:31:58.583Z,10.95
2023-02-25T17:34:30.297Z,7.82
2023-02-25T17:37:02.750Z,6.47
2023-02-25T17:39:29.768Z,7.60
2023-02-25T17:41:56.541Z,8.07
2023-02-25T17:44:47.475Z,4.53
2023-02-25T17:47:19.875Z,9.43
2023-02-25T17:49:46.804Z,7.25
2023-02-25T17:52:20.671Z,8.77
2023-02-25T17:54:48.904Z,6.82
2023-02-25T17:57:19.985Z,7.13
2023-02-25T17:59:56.847Z,10.88
2023-02-25T18:02:34.424Z,6.50
2023-02-25T18:05:13.491Z,7.45
2023-02-25T18:07:41.868Z,8.85
2023-02-25T18:10:23.736Z,6.53
2023-02-25T18:12:50.376Z,6.72
2023-02-25T18:15:19.062Z,6.45
2023-02-25T18:17:55.549Z,8.50
2023-02-25T18:20:35.896Z,7.90
2023-02-25T18:23:03.922Z,6.18
2023-02-25T18:25:32.510Z,7.82
2023-02-25T18:27:59.202Z,7.03
2023-02-25T18:30:27.373Z,6.97
2023-02-25T18:32:54.168Z,6.10
2023-02-25T18:35:21.156Z,7.88
2023-02-25T18:37:48.942Z,6.38
2023-02-25T18:40:16.856Z,5.95
2023-02-25T18:42:44.124Z,7.53
2023-02-25T18:45:18.662Z,7.93
2023-02-25T18:47:45.427Z,5.82
2023-02-25T18:50:12.252Z,5.18
2023-02-25T18:52:38.949Z,6.70
2023-02-25T18:55:06.916Z,8.45
2023-02-25T18:57:33.612Z,6.88
2023-02-25T19:00:00.259Z,6.40
2023-02-25T19:02:26.861Z,7.30
2023-02-25T19:04:55.415Z,8.52
2023-02-25T19:07:24.286Z,8.60
2023-02-25T19:09:51.385Z,8.23
2023-02-25T19:12:18.382Z,6.93
2023-02-25T19:14:45.455Z,6.65
2023-02-25T19:17:15.911Z,6.80
2023-02-25T19:19:46.477Z,5.43
2023-02-25T19:22:15.065Z,6.05
2023-02-25T19:24:45.602Z,5.82
2023-02-25T19:27:26.625Z,8.68
2023-02-25T19:29:57.840Z,8.55
2023-02-25T19:32:25.405Z,6.90
2023-02-25T19:34:52.317Z,8.00
2023-02-25T19:37:20.198Z,6.88
2023-02-25T19:39:46.924Z,7.65
2023-02-25T19:42:13.577Z,6.97
2023-02-25T19:44:40.165Z,6.15
2023-02-25T19:47:06.900Z,7.32
2023-02-25T19:49:33.612Z,8.25
2023-02-25T19:52:00.332Z,7.07
2023-02-25T19:54:26.933Z,7.72
2023-02-25T19:56:53.651Z,6.25
2023-02-25T19:59:21.193Z,7.07
2023-02-25T20:01:47.816Z,8.35
2023-02-25T20:04:14.588Z,7.00
2023-02-25T20:06:41.215Z,6.88
2023-02-25T20:09:09.541Z,5.85
2023-02-25T20:11:36.307Z,6.72
2023-02-25T20:14:03.989Z,5.68
2023-02-25T20:16:31.324Z,5.22
2023-02-25T20:18:58.086Z,5.07
2023-02-25T20:21:25.594Z,5.45
2023-02-25T20:23:53.104Z,5.78
2023-02-25T20:26:20.209Z,7.63
2023-02-25T20:28:46.972Z,8.48
2023-02-25T20:31:16.811Z,11.18
2023-02-25T20:33:43.844Z,10.57
2023-02-25T20:36:50.792Z,10.95
2023-02-25T20:39:26.675Z,17.67
2023-02-25T20:41:54.233Z,14.60
2023-02-25T20:44:21.009Z,13.80
2023-02-25T20:46:47.768Z,12.70
2023-02-25T20:49:16.004Z,14.30
2023-02-25T20:51:44.745Z,15.30
2023-02-25T20:54:11.786Z,13.00
2023-02-25T20:56:38.594Z,15.45
2023-02-25T20:59:05.253Z,17.55
2023-02-25T21:01:32.032Z,15.48
2023-02-25T21:04:00.129Z,13.35
2023-02-25T21:06:26.955Z,13.88
2023-02-25T21:08:53.925Z,10.52
2023-02-25T21:11:21.407Z,11.30
2023-02-25T21:13:48.168Z,14.30
2023-02-25T21:16:15.576Z,13.23
2023-02-25T21:18:43.612Z,11.45
2023-02-25T21:21:11.000Z,9.13
2023-02-25T21:23:37.684Z,11.70
2023-02-25T21:26:08.410Z,10.73
2023-02-25T21:28:35.254Z,9.35
2023-02-25T21:31:06.318Z,10.93
2023-02-25T21:33:33.513Z,11.95
2023-02-25T21:36:00.218Z,10.00
2023-02-25T21:38:28.113Z,9.65
2023-02-25T21:40:55.549Z,21.35
2023-02-25T21:43:22.424Z,12.85
2023-02-25T21:45:55.915Z,12.55
2023-02-25T21:48:23.117Z,14.00
2023-02-25T21:50:49.840Z,14.95
2023-02-25T21:53:16.539Z,13.88
2023-02-25T21:55:43.222Z,13.52
2023-02-25T21:58:10.930Z,12.15
2023-02-25T22:00:38.165Z,8.90
2023-02-25T22:03:05.867Z,12.77
2023-02-25T22:05:33.008Z,11.82
2023-02-25T22:07:59.621Z,6.80
2023-02-25T22:10:26.586Z,7.95
2023-02-25T22:12:54.128Z,7.88
2023-02-25T22:15:21.160Z,8.85
2023-02-25T22:17:47.833Z,8.77
2023-02-25T22:20:14.693Z,8.18
2023-02-25T22:22:41.370Z,8.38
2023-02-25T22:25:08.302Z,7.38
2023-02-25T22:27:34.949Z,9.80
2023-02-25T22:30:01.628Z,12.65
2023-02-25T22:32:28.309Z,13.13
2023-02-25T22:34:54.979Z,14.07
2023-02-25T22:37:21.627Z,9.20
2023-02-25T22:39:48.241Z,10.57
2023-02-25T22:42:14.899Z,12.32
2023-02-25T22:44:41.527Z,12.95
2023-02-25T22:47:08.182Z,14.50
2023-02-25T22:49:34.850Z,12.70
2023-02-25T22:52:01.477Z,11.55
2023-02-25T22:54:28.089Z,11.05
2023-02-25T22:56:54.819Z,10.80
2023-02-25T22:59:21.826Z,7.25
2023-02-25T23:01:48.493Z,8.15
2023-02-25T23:04:15.295Z,7.88
2023-02-25T23:06:44.403Z,6.88
2023-02-25T23:09:15.058Z,7.18
2023-02-25T23:11:42.236Z,7.13
2023-02-25T23:14:08.915Z,7.45
2023-02-25T23:16:40.824Z,7.00
2023-02-25T23:19:09.581Z,11.75
2023-02-25T23:21:38.686Z,15.02
2023-02-25T23:24:07.504Z,9.35
2023-02-25T23:29:04.353Z,7.93
2023-02-25T23:31:35.693Z,7.80
2023-02-25T23:34:08.981Z,8.55
2023-02-25T23:36:36.663Z,7.05
2023-02-25T23:39:05.005Z,8.10
2023-02-25T23:41:31.635Z,9.05
2023-02-25T23:43:59.064Z,11.20
2023-02-25T23:46:26.691Z,9.55
2023-02-25T23:48:57.632Z,8.18
2023-02-25T23:51:24.531Z,7.18
2023-02-25T23:53:55.098Z,10.25
2023-02-25T23:56:21.946Z,8.82
2023-02-25T23:58:49.686Z,9.13
